sensor_id;sensor_type;location;lat;lon;timestamp;P1;durP1;ratioP1;P2;durP2;ratioP2
57055;SDS011;42945;51.718;5.324;2022-07-05T00:00:36;10.77;;;6.03;;
57055;SDS011;42945;51.718;5.324;2022-07-05T00:03:01;8.27;;;5.40;;
57055;SDS011;42945;51.718;5.324;2022-07-05T00:05:27;9.57;;;6.32;;
57055;SDS011;42945;51.718;5.324;2022-07-05T00:07:52;10.23;;;5.68;;
57055;SDS011;42945;51.718;5.324;2022-07-05T00:10:17;9.77;;;5.22;;
57055;SDS011;42945;51.718;5.324;2022-07-05T00:12:43;11.27;;;5.43;;
57055;SDS011;42945;51.718;5.324;2022-07-05T00:15:08;9.75;;;5.50;;
57055;SDS011;42945;51.718;5.324;2022-07-05T00:17:34;8.88;;;5.70;;
57055;SDS011;42945;51.718;5.324;2022-07-05T00:19:59;10.77;;;5.47;;
57055;SDS011;42945;51.718;5.324;2022-07-05T00:22:26;8.82;;;4.93;;
57055;SDS011;42945;51.718;5.324;2022-07-05T00:24:51;10.05;;;5.22;;
57055;SDS011;42945;51.718;5.324;2022-07-05T00:27:16;9.25;;;5.28;;
57055;SDS011;42945;51.718;5.324;2022-07-05T00:29:42;7.50;;;5.03;;
57055;SDS011;42945;51.718;5.324;2022-07-05T00:32:07;7.65;;;5.05;;
57055;SDS011;42945;51.718;5.324;2022-07-05T00:34:32;9.43;;;5.22;;
57055;SDS011;42945;51.718;5.324;2022-07-05T00:36:59;8.27;;;5.03;;
57055;SDS011;42945;51.718;5.324;2022-07-05T00:39:24;10.82;;;6.00;;
57055;SDS011;42945;51.718;5.324;2022-07-05T00:41:51;10.30;;;5.45;;
57055;SDS011;42945;51.718;5.324;2022-07-05T00:44:17;10.25;;;5.45;;
57055;SDS011;42945;51.718;5.324;2022-07-05T00:46:56;9.38;;;5.22;;
57055;SDS011;42945;51.718;5.324;2022-07-05T00:49:21;11.25;;;5.88;;
57055;SDS011;42945;51.718;5.324;2022-07-05T00:51:50;10.52;;;5.82;;
57055;SDS011;42945;51.718;5.324;2022-07-05T00:54:15;11.45;;;7.18;;
57055;SDS011;42945;51.718;5.324;2022-07-05T00:56:41;12.15;;;7.30;;
57055;SDS011;42945;51.718;5.324;2022-07-05T00:59:07;11.70;;;6.20;;
57055;SDS011;42945;51.718;5.324;2022-07-05T01:01:33;9.60;;;6.32;;
57055;SDS011;42945;51.718;5.324;2022-07-05T01:03:58;11.43;;;6.28;;
57055;SDS011;42945;51.718;5.324;2022-07-05T01:06:23;8.90;;;6.35;;
57055;SDS011;42945;51.718;5.324;2022-07-05T01:08:49;9.35;;;5.80;;
57055;SDS011;42945;51.718;5.324;2022-07-05T01:11:15;9.20;;;5.28;;
57055;SDS011;42945;51.718;5.324;2022-07-05T01:13:40;9.65;;;5.78;;
57055;SDS011;42945;51.718;5.324;2022-07-05T01:16:06;12.38;;;5.80;;
57055;SDS011;42945;51.718;5.324;2022-07-05T01:18:32;10.23;;;5.88;;
57055;SDS011;42945;51.718;5.324;2022-07-05T01:21:01;11.45;;;6.10;;
57055;SDS011;42945;51.718;5.324;2022-07-05T01:23:27;10.63;;;6.20;;
57055;SDS011;42945;51.718;5.324;2022-07-05T01:25:54;8.73;;;5.97;;
57055;SDS011;42945;51.718;5.324;2022-07-05T01:28:22;11.88;;;5.93;;
57055;SDS011;42945;51.718;5.324;2022-07-05T01:30:48;10.65;;;6.97;;
57055;SDS011;42945;51.718;5.324;2022-07-05T01:33:13;12.73;;;7.22;;
57055;SDS011;42945;51.718;5.324;2022-07-05T01:35:38;12.48;;;7.13;;
57055;SDS011;42945;51.718;5.324;2022-07-05T01:38:04;12.65;;;7.50;;
57055;SDS011;42945;51.718;5.324;2022-07-05T01:40:29;15.38;;;7.80;;
57055;SDS011;42945;51.718;5.324;2022-07-05T01:42:55;12.02;;;6.80;;
57055;SDS011;42945;51.718;5.324;2022-07-05T01:45:20;13.40;;;7.13;;
57055;SDS011;42945;51.718;5.324;2022-07-05T01:48:06;10.40;;;7.00;;
57055;SDS011;42945;51.718;5.324;2022-07-05T01:50:35;10.55;;;6.93;;
57055;SDS011;42945;51.718;5.324;2022-07-05T01:53:04;12.57;;;7.07;;
57055;SDS011;42945;51.718;5.324;2022-07-05T01:55:33;16.25;;;7.68;;
57055;SDS011;42945;51.718;5.324;2022-07-05T01:57:58;13.02;;;7.10;;
57055;SDS011;42945;51.718;5.324;2022-07-05T02:00:24;12.40;;;7.25;;
57055;SDS011;42945;51.718;5.324;2022-07-05T02:02:49;11.57;;;6.63;;
57055;SDS011;42945;51.718;5.324;2022-07-05T02:05:15;11.80;;;7.43;;
57055;SDS011;42945;51.718;5.324;2022-07-05T02:07:47;12.15;;;6.93;;
57055;SDS011;42945;51.718;5.324;2022-07-05T02:10:15;13.70;;;7.45;;
57055;SDS011;42945;51.718;5.324;2022-07-05T02:12:41;12.73;;;7.57;;
57055;SDS011;42945;51.718;5.324;2022-07-05T02:15:06;13.40;;;7.45;;
57055;SDS011;42945;51.718;5.324;2022-07-05T02:17:32;12.60;;;8.27;;
57055;SDS011;42945;51.718;5.324;2022-07-05T02:19:57;13.35;;;8.55;;
57055;SDS011;42945;51.718;5.324;2022-07-05T02:22:23;13.25;;;8.68;;
57055;SDS011;42945;51.718;5.324;2022-07-05T02:24:49;14.10;;;7.78;;
57055;SDS011;42945;51.718;5.324;2022-07-05T02:27:14;10.98;;;7.32;;
57055;SDS011;42945;51.718;5.324;2022-07-05T02:29:41;14.57;;;7.60;;
57055;SDS011;42945;51.718;5.324;2022-07-05T02:32:06;14.27;;;8.13;;
57055;SDS011;42945;51.718;5.324;2022-07-05T02:34:31;12.00;;;7.80;;
57055;SDS011;42945;51.718;5.324;2022-07-05T02:36:57;13.20;;;7.65;;
57055;SDS011;42945;51.718;5.324;2022-07-05T02:39:22;14.30;;;8.35;;
57055;SDS011;42945;51.718;5.324;2022-07-05T02:41:47;17.67;;;7.90;;
57055;SDS011;42945;51.718;5.324;2022-07-05T02:44:13;13.60;;;8.45;;
57055;SDS011;42945;51.718;5.324;2022-07-05T02:46:38;16.60;;;8.95;;
57055;SDS011;42945;51.718;5.324;2022-07-05T02:49:03;17.15;;;8.73;;
57055;SDS011;42945;51.718;5.324;2022-07-05T02:51:29;11.93;;;8.30;;
57055;SDS011;42945;51.718;5.324;2022-07-05T02:53:54;21.90;;;9.43;;
57055;SDS011;42945;51.718;5.324;2022-07-05T02:56:20;17.40;;;9.45;;
57055;SDS011;42945;51.718;5.324;2022-07-05T02:58:45;15.68;;;9.27;;
57055;SDS011;42945;51.718;5.324;2022-07-05T03:01:10;15.82;;;8.63;;
57055;SDS011;42945;51.718;5.324;2022-07-05T03:03:36;14.52;;;9.20;;
57055;SDS011;42945;51.718;5.324;2022-07-05T03:06:01;18.52;;;9.32;;
57055;SDS011;42945;51.718;5.324;2022-07-05T03:08:26;16.30;;;9.40;;
57055;SDS011;42945;51.718;5.324;2022-07-05T03:10:52;13.77;;;9.00;;
57055;SDS011;42945;51.718;5.324;2022-07-05T03:13:17;13.88;;;8.70;;
57055;SDS011;42945;51.718;5.324;2022-07-05T03:15:42;14.90;;;9.02;;
57055;SDS011;42945;51.718;5.324;2022-07-05T03:18:08;14.35;;;8.73;;
57055;SDS011;42945;51.718;5.324;2022-07-05T03:20:33;14.85;;;8.48;;
57055;SDS011;42945;51.718;5.324;2022-07-05T03:22:59;13.32;;;8.25;;
57055;SDS011;42945;51.718;5.324;2022-07-05T03:25:24;13.13;;;8.48;;
57055;SDS011;42945;51.718;5.324;2022-07-05T03:27:49;16.30;;;7.82;;
57055;SDS011;42945;51.718;5.324;2022-07-05T03:30:15;13.82;;;7.40;;
57055;SDS011;42945;51.718;5.324;2022-07-05T03:32:40;12.60;;;7.70;;
57055;SDS011;42945;51.718;5.324;2022-07-05T03:35:05;13.95;;;7.50;;
57055;SDS011;42945;51.718;5.324;2022-07-05T03:37:31;13.32;;;8.18;;
57055;SDS011;42945;51.718;5.324;2022-07-05T03:39:56;13.07;;;7.18;;
57055;SDS011;42945;51.718;5.324;2022-07-05T03:42:21;11.10;;;7.65;;
57055;SDS011;42945;51.718;5.324;2022-07-05T03:44:47;11.82;;;7.15;;
57055;SDS011;42945;51.718;5.324;2022-07-05T03:47:13;10.82;;;7.07;;
57055;SDS011;42945;51.718;5.324;2022-07-05T03:49:39;10.48;;;6.93;;
57055;SDS011;42945;51.718;5.324;2022-07-05T03:52:04;11.20;;;6.78;;
57055;SDS011;42945;51.718;5.324;2022-07-05T03:54:29;18.02;;;6.95;;
57055;SDS011;42945;51.718;5.324;2022-07-05T03:56:54;9.98;;;6.75;;
57055;SDS011;42945;51.718;5.324;2022-07-05T03:59:20;11.88;;;6.22;;
57055;SDS011;42945;51.718;5.324;2022-07-05T04:01:45;12.77;;;7.00;;
57055;SDS011;42945;51.718;5.324;2022-07-05T04:04:10;11.45;;;6.45;;
57055;SDS011;42945;51.718;5.324;2022-07-05T04:06:36;11.15;;;6.55;;
57055;SDS011;42945;51.718;5.324;2022-07-05T04:09:01;10.23;;;6.95;;
57055;SDS011;42945;51.718;5.324;2022-07-05T04:11:26;11.38;;;6.72;;
57055;SDS011;42945;51.718;5.324;2022-07-05T04:13:51;10.75;;;6.95;;
57055;SDS011;42945;51.718;5.324;2022-07-05T04:16:17;12.15;;;6.82;;
57055;SDS011;42945;51.718;5.324;2022-07-05T04:18:42;10.70;;;6.63;;
57055;SDS011;42945;51.718;5.324;2022-07-05T04:21:07;11.20;;;7.40;;
57055;SDS011;42945;51.718;5.324;2022-07-05T04:23:33;13.52;;;7.35;;
57055;SDS011;42945;51.718;5.324;2022-07-05T04:26:00;14.07;;;7.53;;
57055;SDS011;42945;51.718;5.324;2022-07-05T04:28:26;14.82;;;7.45;;
57055;SDS011;42945;51.718;5.324;2022-07-05T04:30:51;13.98;;;7.80;;
57055;SDS011;42945;51.718;5.324;2022-07-05T04:33:16;12.48;;;7.90;;
57055;SDS011;42945;51.718;5.324;2022-07-05T04:35:42;11.73;;;7.18;;
57055;SDS011;42945;51.718;5.324;2022-07-05T04:38:07;11.13;;;7.28;;
57055;SDS011;42945;51.718;5.324;2022-07-05T04:40:32;13.38;;;8.05;;
57055;SDS011;42945;51.718;5.324;2022-07-05T04:42:58;13.43;;;7.38;;
57055;SDS011;42945;51.718;5.324;2022-07-05T04:45:23;13.02;;;7.53;;
57055;SDS011;42945;51.718;5.324;2022-07-05T04:47:48;11.43;;;7.05;;
57055;SDS011;42945;51.718;5.324;2022-07-05T04:50:13;12.65;;;7.25;;
57055;SDS011;42945;51.718;5.324;2022-07-05T04:52:39;11.90;;;7.13;;
57055;SDS011;42945;51.718;5.324;2022-07-05T04:55:05;17.35;;;7.13;;
57055;SDS011;42945;51.718;5.324;2022-07-05T04:57:40;14.23;;;7.22;;
57055;SDS011;42945;51.718;5.324;2022-07-05T05:00:07;11.70;;;7.13;;
57055;SDS011;42945;51.718;5.324;2022-07-05T05:02:34;12.90;;;7.65;;
57055;SDS011;42945;51.718;5.324;2022-07-05T05:04:59;13.38;;;7.93;;
57055;SDS011;42945;51.718;5.324;2022-07-05T05:07:24;15.68;;;8.23;;
57055;SDS011;42945;51.718;5.324;2022-07-05T05:09:50;13.35;;;7.55;;
57055;SDS011;42945;51.718;5.324;2022-07-05T05:12:15;12.90;;;7.50;;
57055;SDS011;42945;51.718;5.324;2022-07-05T05:14:40;16.58;;;8.00;;
57055;SDS011;42945;51.718;5.324;2022-07-05T05:17:05;16.83;;;7.68;;
57055;SDS011;42945;51.718;5.324;2022-07-05T05:19:31;17.30;;;7.80;;
57055;SDS011;42945;51.718;5.324;2022-07-05T05:21:56;12.90;;;7.47;;
57055;SDS011;42945;51.718;5.324;2022-07-05T05:24:21;16.02;;;8.30;;
57055;SDS011;42945;51.718;5.324;2022-07-05T05:26:47;11.23;;;7.50;;
57055;SDS011;42945;51.718;5.324;2022-07-05T05:29:12;14.02;;;7.25;;
57055;SDS011;42945;51.718;5.324;2022-07-05T05:31:37;10.18;;;6.90;;
57055;SDS011;42945;51.718;5.324;2022-07-05T05:34:03;16.02;;;7.18;;
57055;SDS011;42945;51.718;5.324;2022-07-05T05:36:28;11.15;;;6.70;;
57055;SDS011;42945;51.718;5.324;2022-07-05T05:38:53;13.05;;;7.25;;
57055;SDS011;42945;51.718;5.324;2022-07-05T05:41:19;9.85;;;6.60;;
57055;SDS011;42945;51.718;5.324;2022-07-05T05:43:44;11.65;;;6.25;;
57055;SDS011;42945;51.718;5.324;2022-07-05T05:46:10;15.00;;;6.88;;
57055;SDS011;42945;51.718;5.324;2022-07-05T05:48:35;11.20;;;6.25;;
57055;SDS011;42945;51.718;5.324;2022-07-05T05:51:00;10.85;;;6.53;;
57055;SDS011;42945;51.718;5.324;2022-07-05T05:53:26;10.77;;;5.57;;
57055;SDS011;42945;51.718;5.324;2022-07-05T05:55:51;11.43;;;6.15;;
57055;SDS011;42945;51.718;5.324;2022-07-05T05:58:18;8.85;;;6.00;;
57055;SDS011;42945;51.718;5.324;2022-07-05T06:00:48;9.13;;;6.03;;
57055;SDS011;42945;51.718;5.324;2022-07-05T06:03:17;11.50;;;5.50;;
57055;SDS011;42945;51.718;5.324;2022-07-05T06:05:47;10.80;;;5.68;;
57055;SDS011;42945;51.718;5.324;2022-07-05T06:08:12;7.68;;;5.03;;
57055;SDS011;42945;51.718;5.324;2022-07-05T06:10:37;6.85;;;4.30;;
57055;SDS011;42945;51.718;5.324;2022-07-05T06:13:04;9.05;;;4.43;;
57055;SDS011;42945;51.718;5.324;2022-07-05T06:15:35;8.27;;;4.18;;
57055;SDS011;42945;51.718;5.324;2022-07-05T06:18:02;11.65;;;4.60;;
57055;SDS011;42945;51.718;5.324;2022-07-05T06:20:29;8.57;;;4.20;;
57055;SDS011;42945;51.718;5.324;2022-07-05T06:22:56;7.30;;;4.50;;
57055;SDS011;42945;51.718;5.324;2022-07-05T06:25:22;9.27;;;4.47;;
57055;SDS011;42945;51.718;5.324;2022-07-05T06:27:50;9.77;;;5.00;;
57055;SDS011;42945;51.718;5.324;2022-07-05T06:30:23;11.43;;;5.20;;
57055;SDS011;42945;51.718;5.324;2022-07-05T06:32:50;10.68;;;4.68;;
57055;SDS011;42945;51.718;5.324;2022-07-05T06:35:16;9.07;;;4.25;;
57055;SDS011;42945;51.718;5.324;2022-07-05T06:37:43;9.60;;;5.32;;
57055;SDS011;42945;51.718;5.324;2022-07-05T06:40:20;7.00;;;4.53;;
57055;SDS011;42945;51.718;5.324;2022-07-05T06:42:50;8.23;;;4.57;;
57055;SDS011;42945;51.718;5.324;2022-07-05T06:45:17;9.85;;;4.68;;
57055;SDS011;42945;51.718;5.324;2022-07-05T06:47:42;10.45;;;4.28;;
57055;SDS011;42945;51.718;5.324;2022-07-05T06:50:08;10.43;;;4.55;;
57055;SDS011;42945;51.718;5.324;2022-07-05T06:52:35;11.48;;;4.55;;
57055;SDS011;42945;51.718;5.324;2022-07-05T06:55:00;6.75;;;3.63;;
57055;SDS011;42945;51.718;5.324;2022-07-05T06:57:26;7.18;;;3.40;;
57055;SDS011;42945;51.718;5.324;2022-07-05T06:59:52;7.97;;;4.10;;
57055;SDS011;42945;51.718;5.324;2022-07-05T07:02:17;10.38;;;4.32;;
57055;SDS011;42945;51.718;5.324;2022-07-05T07:04:44;7.18;;;3.67;;
57055;SDS011;42945;51.718;5.324;2022-07-05T07:07:10;10.07;;;3.70;;
57055;SDS011;42945;51.718;5.324;2022-07-05T07:09:58;21.38;;;4.47;;
57055;SDS011;42945;51.718;5.324;2022-07-05T07:12:24;8.80;;;4.20;;
57055;SDS011;42945;51.718;5.324;2022-07-05T07:14:49;7.03;;;3.28;;
57055;SDS011;42945;51.718;5.324;2022-07-05T07:17:15;8.23;;;3.42;;
57055;SDS011;42945;51.718;5.324;2022-07-05T07:19:44;8.10;;;4.07;;
57055;SDS011;42945;51.718;5.324;2022-07-05T07:22:09;12.55;;;4.43;;
57055;SDS011;42945;51.718;5.324;2022-07-05T07:24:34;9.30;;;4.10;;
57055;SDS011;42945;51.718;5.324;2022-07-05T07:27:00;9.18;;;4.20;;
57055;SDS011;42945;51.718;5.324;2022-07-05T07:29:34;9.05;;;4.40;;
57055;SDS011;42945;51.718;5.324;2022-07-05T07:32:00;6.32;;;3.80;;
57055;SDS011;42945;51.718;5.324;2022-07-05T07:34:29;11.45;;;3.80;;
57055;SDS011;42945;51.718;5.324;2022-07-05T07:36:55;11.88;;;3.78;;
57055;SDS011;42945;51.718;5.324;2022-07-05T07:39:21;10.40;;;4.05;;
57055;SDS011;42945;51.718;5.324;2022-07-05T07:41:47;8.10;;;3.25;;
57055;SDS011;42945;51.718;5.324;2022-07-05T07:44:13;11.63;;;4.10;;
57055;SDS011;42945;51.718;5.324;2022-07-05T07:46:38;12.77;;;3.65;;
57055;SDS011;42945;51.718;5.324;2022-07-05T07:49:04;12.63;;;3.70;;
57055;SDS011;42945;51.718;5.324;2022-07-05T07:51:30;13.68;;;3.58;;
57055;SDS011;42945;51.718;5.324;2022-07-05T07:53:55;10.05;;;3.05;;
57055;SDS011;42945;51.718;5.324;2022-07-05T07:56:20;10.00;;;2.95;;
57055;SDS011;42945;51.718;5.324;2022-07-05T07:58:46;10.82;;;3.00;;
57055;SDS011;42945;51.718;5.324;2022-07-05T08:01:12;11.80;;;3.90;;
57055;SDS011;42945;51.718;5.324;2022-07-05T08:03:39;9.63;;;4.03;;
57055;SDS011;42945;51.718;5.324;2022-07-05T08:06:05;12.43;;;4.45;;
57055;SDS011;42945;51.718;5.324;2022-07-05T08:08:32;9.43;;;4.15;;
57055;SDS011;42945;51.718;5.324;2022-07-05T08:10:58;11.93;;;4.35;;
57055;SDS011;42945;51.718;5.324;2022-07-05T08:13:24;6.15;;;3.00;;
57055;SDS011;42945;51.718;5.324;2022-07-05T08:15:49;9.18;;;2.90;;
57055;SDS011;42945;51.718;5.324;2022-07-05T08:18:15;13.15;;;4.35;;
57055;SDS011;42945;51.718;5.324;2022-07-05T08:20:59;11.15;;;5.43;;
57055;SDS011;42945;51.718;5.324;2022-07-05T08:23:42;9.50;;;4.57;;
57055;SDS011;42945;51.718;5.324;2022-07-05T08:26:08;12.63;;;5.72;;
57055;SDS011;42945;51.718;5.324;2022-07-05T08:28:33;14.68;;;5.97;;
57055;SDS011;42945;51.718;5.324;2022-07-05T08:30:59;14.38;;;5.22;;
57055;SDS011;42945;51.718;5.324;2022-07-05T08:33:24;15.27;;;5.88;;
57055;SDS011;42945;51.718;5.324;2022-07-05T08:35:50;12.90;;;5.70;;
57055;SDS011;42945;51.718;5.324;2022-07-05T08:38:15;16.27;;;6.53;;
57055;SDS011;42945;51.718;5.324;2022-07-05T08:40:43;17.13;;;5.78;;
57055;SDS011;42945;51.718;5.324;2022-07-05T08:43:10;13.50;;;5.30;;
57055;SDS011;42945;51.718;5.324;2022-07-05T08:45:37;8.05;;;3.90;;
57055;SDS011;42945;51.718;5.324;2022-07-05T08:48:04;8.38;;;3.40;;
57055;SDS011;42945;51.718;5.324;2022-07-05T08:50:30;11.18;;;3.95;;
57055;SDS011;42945;51.718;5.324;2022-07-05T08:52:57;10.18;;;4.60;;
57055;SDS011;42945;51.718;5.324;2022-07-05T08:55:24;11.00;;;5.20;;
57055;SDS011;42945;51.718;5.324;2022-07-05T08:57:51;9.13;;;5.05;;
57055;SDS011;42945;51.718;5.324;2022-07-05T09:00:16;16.27;;;4.63;;
57055;SDS011;42945;51.718;5.324;2022-07-05T09:02:42;13.73;;;4.53;;
57055;SDS011;42945;51.718;5.324;2022-07-05T09:05:08;9.57;;;3.72;;
57055;SDS011;42945;51.718;5.324;2022-07-05T09:07:37;8.52;;;4.15;;
57055;SDS011;42945;51.718;5.324;2022-07-05T09:10:09;9.63;;;3.55;;
57055;SDS011;42945;51.718;5.324;2022-07-05T09:12:37;10.60;;;3.42;;
57055;SDS011;42945;51.718;5.324;2022-07-05T09:15:02;8.27;;;3.28;;
57055;SDS011;42945;51.718;5.324;2022-07-05T09:17:29;4.85;;;3.00;;
57055;SDS011;42945;51.718;5.324;2022-07-05T09:20:08;6.93;;;2.88;;
57055;SDS011;42945;51.718;5.324;2022-07-05T09:22:47;4.47;;;2.72;;
57055;SDS011;42945;51.718;5.324;2022-07-05T09:25:26;10.65;;;3.15;;
57055;SDS011;42945;51.718;5.324;2022-07-05T09:27:54;6.63;;;2.67;;
57055;SDS011;42945;51.718;5.324;2022-07-05T09:30:25;9.93;;;2.85;;
57055;SDS011;42945;51.718;5.324;2022-07-05T09:35:28;10.45;;;2.97;;
57055;SDS011;42945;51.718;5.324;2022-07-05T09:37:57;6.50;;;2.47;;
57055;SDS011;42945;51.718;5.324;2022-07-05T09:40:22;5.40;;;1.90;;
57055;SDS011;42945;51.718;5.324;2022-07-05T09:42:48;6.55;;;1.63;;
57055;SDS011;42945;51.718;5.324;2022-07-05T09:45:15;6.70;;;2.10;;
57055;SDS011;42945;51.718;5.324;2022-07-05T09:47:48;6.88;;;2.10;;
57055;SDS011;42945;51.718;5.324;2022-07-05T09:50:15;7.60;;;2.33;;
57055;SDS011;42945;51.718;5.324;2022-07-05T09:52:58;9.27;;;2.25;;
57055;SDS011;42945;51.718;5.324;2022-07-05T09:55:23;5.95;;;2.42;;
57055;SDS011;42945;51.718;5.324;2022-07-05T09:57:48;5.18;;;1.80;;
57055;SDS011;42945;51.718;5.324;2022-07-05T10:00:18;6.80;;;2.15;;
57055;SDS011;42945;51.718;5.324;2022-07-05T10:02:46;4.63;;;1.90;;
57055;SDS011;42945;51.718;5.324;2022-07-05T10:05:25;4.80;;;1.80;;
57055;SDS011;42945;51.718;5.324;2022-07-05T10:07:53;5.47;;;2.20;;
57055;SDS011;42945;51.718;5.324;2022-07-05T10:10:23;6.85;;;2.40;;
57055;SDS011;42945;51.718;5.324;2022-07-05T10:12:51;12.05;;;3.47;;
57055;SDS011;42945;51.718;5.324;2022-07-05T10:15:19;5.82;;;3.17;;
57055;SDS011;42945;51.718;5.324;2022-07-05T10:17:47;5.40;;;3.00;;
57055;SDS011;42945;51.718;5.324;2022-07-05T10:20:43;5.72;;;3.03;;
57055;SDS011;42945;51.718;5.324;2022-07-05T10:23:15;4.78;;;2.85;;
57055;SDS011;42945;51.718;5.324;2022-07-05T10:25:46;8.02;;;2.80;;
57055;SDS011;42945;51.718;5.324;2022-07-05T10:28:14;7.57;;;3.20;;
57055;SDS011;42945;51.718;5.324;2022-07-05T10:30:41;7.10;;;3.70;;
57055;SDS011;42945;51.718;5.324;2022-07-05T10:33:11;8.88;;;3.92;;
57055;SDS011;42945;51.718;5.324;2022-07-05T10:35:42;7.30;;;4.15;;
57055;SDS011;42945;51.718;5.324;2022-07-05T10:38:08;9.52;;;4.35;;
57055;SDS011;42945;51.718;5.324;2022-07-05T10:40:35;8.15;;;3.90;;
57055;SDS011;42945;51.718;5.324;2022-07-05T10:43:02;7.80;;;3.72;;
57055;SDS011;42945;51.718;5.324;2022-07-05T10:45:31;6.78;;;3.30;;
57055;SDS011;42945;51.718;5.324;2022-07-05T10:48:13;8.57;;;3.53;;
57055;SDS011;42945;51.718;5.324;2022-07-05T10:50:52;8.02;;;3.33;;
57055;SDS011;42945;51.718;5.324;2022-07-05T10:53:23;4.68;;;3.50;;
57055;SDS011;42945;51.718;5.324;2022-07-05T10:58:37;4.80;;;3.00;;
57055;SDS011;42945;51.718;5.324;2022-07-05T11:03:38;3.97;;;2.13;;
57055;SDS011;42945;51.718;5.324;2022-07-05T11:06:05;6.03;;;2.10;;
57055;SDS011;42945;51.718;5.324;2022-07-05T11:11:30;4.07;;;1.90;;
57055;SDS011;42945;51.718;5.324;2022-07-05T11:14:00;5.72;;;1.67;;
57055;SDS011;42945;51.718;5.324;2022-07-05T11:16:35;4.55;;;1.80;;
57055;SDS011;42945;51.718;5.324;2022-07-05T11:21:30;2.97;;;1.90;;
57055;SDS011;42945;51.718;5.324;2022-07-05T11:26:44;5.32;;;1.48;;
57055;SDS011;42945;51.718;5.324;2022-07-05T11:34:43;3.42;;;1.02;;
57055;SDS011;42945;51.718;5.324;2022-07-05T11:37:25;1.90;;;1.20;;
57055;SDS011;42945;51.718;5.324;2022-07-05T11:42:30;2.42;;;1.20;;
57055;SDS011;42945;51.718;5.324;2022-07-05T11:44:56;4.90;;;1.30;;
57055;SDS011;42945;51.718;5.324;2022-07-05T11:47:22;4.70;;;1.45;;
57055;SDS011;42945;51.718;5.324;2022-07-05T11:49:58;4.18;;;1.58;;
57055;SDS011;42945;51.718;5.324;2022-07-05T11:52:27;7.53;;;1.52;;
57055;SDS011;42945;51.718;5.324;2022-07-05T11:54:56;6.63;;;1.67;;
57055;SDS011;42945;51.718;5.324;2022-07-05T11:57:22;6.45;;;1.52;;
57055;SDS011;42945;51.718;5.324;2022-07-05T11:59:48;5.97;;;1.60;;
57055;SDS011;42945;51.718;5.324;2022-07-05T12:02:15;2.95;;;1.33;;
57055;SDS011;42945;51.718;5.324;2022-07-05T12:04:45;2.90;;;1.17;;
57055;SDS011;42945;51.718;5.324;2022-07-05T12:07:16;2.42;;;1.17;;
57055;SDS011;42945;51.718;5.324;2022-07-05T12:09:51;6.38;;;1.58;;
57055;SDS011;42945;51.718;5.324;2022-07-05T12:12:36;4.57;;;1.15;;
57055;SDS011;42945;51.718;5.324;2022-07-05T12:15:08;4.85;;;1.33;;
57055;SDS011;42945;51.718;5.324;2022-07-05T12:17:34;2.90;;;1.08;;
57055;SDS011;42945;51.718;5.324;2022-07-05T12:20:00;8.05;;;1.35;;
57055;SDS011;42945;51.718;5.324;2022-07-05T12:22:31;2.63;;;1.10;;
57055;SDS011;42945;51.718;5.324;2022-07-05T12:24:58;5.97;;;1.20;;
57055;SDS011;42945;51.718;5.324;2022-07-05T12:27:26;3.97;;;0.73;;
57055;SDS011;42945;51.718;5.324;2022-07-05T12:29:52;3.28;;;0.80;;
57055;SDS011;42945;51.718;5.324;2022-07-05T12:32:18;5.95;;;1.30;;
57055;SDS011;42945;51.718;5.324;2022-07-05T12:34:43;5.00;;;1.00;;
57055;SDS011;42945;51.718;5.324;2022-07-05T12:37:09;5.45;;;1.17;;
57055;SDS011;42945;51.718;5.324;2022-07-05T12:39:34;2.70;;;0.95;;
57055;SDS011;42945;51.718;5.324;2022-07-05T12:42:00;2.15;;;0.90;;
57055;SDS011;42945;51.718;5.324;2022-07-05T12:44:25;6.75;;;1.10;;
57055;SDS011;42945;51.718;5.324;2022-07-05T12:46:50;2.35;;;0.70;;
57055;SDS011;42945;51.718;5.324;2022-07-05T12:49:16;3.28;;;1.02;;
57055;SDS011;42945;51.718;5.324;2022-07-05T12:51:43;2.92;;;0.80;;
57055;SDS011;42945;51.718;5.324;2022-07-05T12:54:22;5.32;;;1.08;;
57055;SDS011;42945;51.718;5.324;2022-07-05T12:57:07;1.80;;;0.88;;
57055;SDS011;42945;51.718;5.324;2022-07-05T13:05:07;6.43;;;0.88;;
57055;SDS011;42945;51.718;5.324;2022-07-05T13:07:40;5.28;;;1.13;;
57055;SDS011;42945;51.718;5.324;2022-07-05T13:10:19;3.03;;;1.10;;
57055;SDS011;42945;51.718;5.324;2022-07-05T13:12:46;3.45;;;0.95;;
57055;SDS011;42945;51.718;5.324;2022-07-05T13:15:12;3.22;;;1.00;;
57055;SDS011;42945;51.718;5.324;2022-07-05T13:17:38;2.28;;;0.90;;
57055;SDS011;42945;51.718;5.324;2022-07-05T13:20:05;2.30;;;0.80;;
57055;SDS011;42945;51.718;5.324;2022-07-05T13:22:33;6.38;;;1.10;;
57055;SDS011;42945;51.718;5.324;2022-07-05T13:24:59;4.30;;;0.80;;
57055;SDS011;42945;51.718;5.324;2022-07-05T13:27:24;2.53;;;0.60;;
57055;SDS011;42945;51.718;5.324;2022-07-05T13:29:49;2.95;;;0.70;;
57055;SDS011;42945;51.718;5.324;2022-07-05T13:32:15;3.83;;;0.68;;
57055;SDS011;42945;51.718;5.324;2022-07-05T13:34:41;2.92;;;0.60;;
57055;SDS011;42945;51.718;5.324;2022-07-05T13:37:07;0.90;;;0.50;;
57055;SDS011;42945;51.718;5.324;2022-07-05T13:39:36;1.67;;;0.60;;
57055;SDS011;42945;51.718;5.324;2022-07-05T13:42:02;2.42;;;0.55;;
57055;SDS011;42945;51.718;5.324;2022-07-05T13:44:30;2.45;;;0.80;;
57055;SDS011;42945;51.718;5.324;2022-07-05T13:46:55;1.80;;;0.80;;
57055;SDS011;42945;51.718;5.324;2022-07-05T13:49:21;3.80;;;1.02;;
57055;SDS011;42945;51.718;5.324;2022-07-05T13:51:47;2.25;;;0.73;;
57055;SDS011;42945;51.718;5.324;2022-07-05T13:54:13;6.22;;;0.85;;
57055;SDS011;42945;51.718;5.324;2022-07-05T13:56:39;2.42;;;0.90;;
57055;SDS011;42945;51.718;5.324;2022-07-05T13:59:05;3.60;;;1.05;;
57055;SDS011;42945;51.718;5.324;2022-07-05T14:01:30;4.28;;;0.70;;
57055;SDS011;42945;51.718;5.324;2022-07-05T14:03:56;3.58;;;0.77;;
57055;SDS011;42945;51.718;5.324;2022-07-05T14:06:24;3.15;;;0.77;;
57055;SDS011;42945;51.718;5.324;2022-07-05T14:08:50;1.17;;;0.30;;
57055;SDS011;42945;51.718;5.324;2022-07-05T14:11:16;1.38;;;0.50;;
57055;SDS011;42945;51.718;5.324;2022-07-05T14:13:41;3.03;;;0.93;;
57055;SDS011;42945;51.718;5.324;2022-07-05T14:16:07;5.25;;;0.60;;
57055;SDS011;42945;51.718;5.324;2022-07-05T14:18:32;1.23;;;0.50;;
57055;SDS011;42945;51.718;5.324;2022-07-05T14:20:58;3.03;;;0.60;;
57055;SDS011;42945;51.718;5.324;2022-07-05T14:23:23;5.28;;;0.93;;
57055;SDS011;42945;51.718;5.324;2022-07-05T14:25:49;4.30;;;0.70;;
57055;SDS011;42945;51.718;5.324;2022-07-05T14:28:14;1.95;;;0.57;;
57055;SDS011;42945;51.718;5.324;2022-07-05T14:30:41;2.05;;;0.63;;
57055;SDS011;42945;51.718;5.324;2022-07-05T14:33:11;2.17;;;0.77;;
57055;SDS011;42945;51.718;5.324;2022-07-05T14:35:38;2.08;;;0.50;;
57055;SDS011;42945;51.718;5.324;2022-07-05T14:38:04;3.58;;;0.75;;
57055;SDS011;42945;51.718;5.324;2022-07-05T14:40:30;1.80;;;0.57;;
57055;SDS011;42945;51.718;5.324;2022-07-05T14:42:56;4.45;;;0.60;;
57055;SDS011;42945;51.718;5.324;2022-07-05T14:45:25;5.38;;;0.75;;
57055;SDS011;42945;51.718;5.324;2022-07-05T14:47:51;2.08;;;0.65;;
57055;SDS011;42945;51.718;5.324;2022-07-05T14:50:17;2.83;;;0.60;;
57055;SDS011;42945;51.718;5.324;2022-07-05T14:52:43;3.15;;;0.50;;
57055;SDS011;42945;51.718;5.324;2022-07-05T14:55:11;2.38;;;0.50;;
57055;SDS011;42945;51.718;5.324;2022-07-05T14:57:36;3.90;;;0.70;;
57055;SDS011;42945;51.718;5.324;2022-07-05T15:00:03;2.85;;;0.77;;
57055;SDS011;42945;51.718;5.324;2022-07-05T15:02:29;3.50;;;0.80;;
57055;SDS011;42945;51.718;5.324;2022-07-05T15:04:55;1.95;;;0.38;;
57055;SDS011;42945;51.718;5.324;2022-07-05T15:07:20;4.07;;;0.60;;
57055;SDS011;42945;51.718;5.324;2022-07-05T15:09:45;3.08;;;0.60;;